createdAt,value
2022-11-05T00:00:38.114Z,2.38
2022-11-05T00:03:24.089Z,3.13
2022-11-05T00:06:12.633Z,2.67
2022-11-05T00:09:00.398Z,2.38
2022-11-05T00:11:46.457Z,3.72
2022-11-05T00:14:32.868Z,3.38
2022-11-05T00:17:00.116Z,3.03
2022-11-05T00:19:27.450Z,3.03
2022-11-05T00:22:13.471Z,3.53
2022-11-05T00:24:59.140Z,4.13
2022-11-05T00:27:26.289Z,3.30
2022-11-05T00:29:53.483Z,3.67
2022-11-05T00:32:22.297Z,2.83
2022-11-05T00:34:49.449Z,3.42
2022-11-05T00:37:16.646Z,4.32
2022-11-05T00:39:43.857Z,3.35
2022-11-05T00:42:29.752Z,2.65
2022-11-05T00:45:03.151Z,2.35
2022-11-05T00:47:52.825Z,1.30
2022-11-05T00:50:22.219Z,2.00
2022-11-05T00:53:01.733Z,3.50
2022-11-05T00:55:38.299Z,1.30
2022-11-05T00:58:09.753Z,1.85
2022-11-05T01:00:41.170Z,2.42
2022-11-05T01:03:14.169Z,2.17
2022-11-05T01:05:52.997Z,1.55
2022-11-05T01:08:23.148Z,2.22
2022-11-05T01:10:57.436Z,2.28
2022-11-05T01:13:30.452Z,1.88
2022-11-05T01:15:58.108Z,1.80
2022-11-05T01:18:25.736Z,2.03
2022-11-05T01:20:53.228Z,1.25
2022-11-05T01:23:21.198Z,1.50
2022-11-05T01:25:48.734Z,1.85
2022-11-05T01:28:16.031Z,2.00
2022-11-05T01:30:43.231Z,2.88
2022-11-05T01:33:10.741Z,1.55
2022-11-05T01:35:41.101Z,4.53
2022-11-05T01:38:08.281Z,1.70
2022-11-05T01:40:35.510Z,1.00
2022-11-05T01:43:02.733Z,1.67
2022-11-05T01:45:30.309Z,1.45
2022-11-05T01:48:16.982Z,1.77
2022-11-05T01:51:11.017Z,1.70
2022-11-05T01:53:48.493Z,2.08
2022-11-05T01:56:26.144Z,2.40
2022-11-05T01:59:13.095Z,2.05
2022-11-05T02:01:40.440Z,1.45
2022-11-05T02:04:17.785Z,1.88
2022-11-05T02:06:47.891Z,1.77
2022-11-05T02:09:53.711Z,1.80
2022-11-05T02:12:23.003Z,1.75
2022-11-05T02:14:50.160Z,1.70
2022-11-05T02:18:09.402Z,1.42
2022-11-05T02:21:21.826Z,2.95
2022-11-05T02:24:25.548Z,1.98
2022-11-05T02:27:49.254Z,2.10
2022-11-05T02:30:43.985Z,1.85
2022-11-05T02:33:22.729Z,2.05
2022-11-05T02:36:01.756Z,2.17
2022-11-05T02:39:01.001Z,1.77
2022-11-05T02:42:11.892Z,3.38
2022-11-05T02:45:21.218Z,2.45
2022-11-05T02:48:07.054Z,1.98
2022-11-05T02:51:23.577Z,2.58
2022-11-05T02:54:29.214Z,2.03
2022-11-05T02:56:59.472Z,2.05
2022-11-05T02:59:26.743Z,2.38
2022-11-05T03:01:54.594Z,1.63
2022-11-05T03:04:24.209Z,2.10
2022-11-05T03:07:24.615Z,2.40
2022-11-05T03:10:46.774Z,1.95
2022-11-05T03:14:03.166Z,1.90
2022-11-05T03:16:43.286Z,3.00
2022-11-05T03:19:39.188Z,3.33
2022-11-05T03:22:28.765Z,3.20
2022-11-05T03:25:02.748Z,2.72
2022-11-05T03:27:37.582Z,2.53
2022-11-05T03:30:09.922Z,2.72
2022-11-05T03:32:43.030Z,2.95
2022-11-05T03:35:24.004Z,3.45
2022-11-05T03:40:23.813Z,2.30
2022-11-05T03:42:55.513Z,3.00
2022-11-05T03:45:31.058Z,2.63
2022-11-05T03:48:01.781Z,2.72
2022-11-05T03:53:21.821Z,2.78
2022-11-05T03:58:24.912Z,2.78
2022-11-05T04:00:52.534Z,4.88
2022-11-05T04:03:19.842Z,3.10
2022-11-05T04:06:07.502Z,4.53
2022-11-05T04:08:53.486Z,4.32
2022-11-05T04:11:39.409Z,4.47
2022-11-05T04:14:06.705Z,5.00
2022-11-05T04:16:52.488Z,4.70
2022-11-05T04:19:39.653Z,5.43
2022-11-05T04:22:25.583Z,5.30
2022-11-05T04:24:52.933Z,6.35
2022-11-05T04:27:20.135Z,5.50
2022-11-05T04:30:05.771Z,6.90
2022-11-05T04:32:33.655Z,8.60
2022-11-05T04:35:00.894Z,5.68
2022-11-05T04:37:28.061Z,7.30
2022-11-05T04:39:55.264Z,14.50
2022-11-05T04:42:22.487Z,7.10
2022-11-05T04:44:49.767Z,7.00
2022-11-05T04:47:16.932Z,8.63
2022-11-05T04:49:44.141Z,9.23
2022-11-05T04:52:11.418Z,10.25
2022-11-05T04:54:38.644Z,8.27
2022-11-05T04:57:05.963Z,7.80
2022-11-05T04:59:33.188Z,8.23
2022-11-05T05:02:00.500Z,7.57
2022-11-05T05:04:27.880Z,9.02
2022-11-05T05:06:55.411Z,9.52
2022-11-05T05:09:22.635Z,8.90
2022-11-05T05:11:49.855Z,8.82
2022-11-05T05:14:17.126Z,8.38
2022-11-05T05:16:44.566Z,9.60
2022-11-05T05:19:11.884Z,8.65
2022-11-05T05:21:39.499Z,8.38
2022-11-05T05:24:29.163Z,8.45
2022-11-05T05:26:56.517Z,28.55
2022-11-05T05:29:24.035Z,41.85
2022-11-05T05:31:51.463Z,45.22
2022-11-05T05:34:18.750Z,26.23
2022-11-05T05:36:46.062Z,29.02
2022-11-05T05:39:13.807Z,34.88
2022-11-05T05:41:40.985Z,28.73
2022-11-05T05:44:08.280Z,19.85
2022-11-05T05:46:35.453Z,14.95
2022-11-05T05:49:05.484Z,12.25
2022-11-05T05:51:36.920Z,11.63
2022-11-05T05:54:05.282Z,11.85
2022-11-05T05:56:32.515Z,12.82
2022-11-05T05:58:59.755Z,8.60
2022-11-05T06:01:27.070Z,11.50
2022-11-05T06:03:54.454Z,7.05
2022-11-05T06:06:21.744Z,17.50
2022-11-05T06:08:49.488Z,9.30
2022-11-05T06:11:17.117Z,7.97
2022-11-05T06:13:44.518Z,6.57
2022-11-05T06:16:11.833Z,8.80
2022-11-05T06:18:39.636Z,8.48
2022-11-05T06:21:15.925Z,6.93
2022-11-05T06:23:45.599Z,7.25
2022-11-05T06:26:16.095Z,8.60
2022-11-05T06:28:44.556Z,5.97
2022-11-05T06:31:14.240Z,7.30
2022-11-05T06:33:42.048Z,7.63
2022-11-05T06:36:15.816Z,6.32
2022-11-05T06:38:43.168Z,7.15
2022-11-05T06:41:10.964Z,5.75
2022-11-05T06:43:41.386Z,5.55
2022-11-05T06:46:11.169Z,6.78
2022-11-05T06:48:40.106Z,7.87
2022-11-05T06:51:08.324Z,9.18
2022-11-05T06:53:36.795Z,6.00
2022-11-05T06:56:08.430Z,6.75
2022-11-05T06:58:38.866Z,4.82
2022-11-05T07:01:10.013Z,5.40
2022-11-05T07:03:39.096Z,6.45
2022-11-05T07:06:08.242Z,5.28
2022-11-05T07:08:37.726Z,7.03
2022-11-05T07:11:06.074Z,5.28
2022-11-05T07:13:33.499Z,5.47
2022-11-05T07:16:00.849Z,4.57
2022-11-05T07:18:28.116Z,4.85
2022-11-05T07:20:55.399Z,5.60
2022-11-05T07:23:22.638Z,4.30
2022-11-05T07:25:49.963Z,4.57
2022-11-05T07:28:17.299Z,5.30
2022-11-05T07:30:44.607Z,9.70
2022-11-05T07:33:12.382Z,10.00
2022-11-05T07:35:39.813Z,13.15
2022-11-05T07:38:07.224Z,6.97
2022-11-05T07:40:34.500Z,7.72
2022-11-05T07:43:02.597Z,10.13
2022-11-05T07:45:31.473Z,10.68
2022-11-05T07:48:03.459Z,11.07
2022-11-05T07:50:34.595Z,11.57
2022-11-05T07:53:09.778Z,9.15
2022-11-05T07:55:37.700Z,5.90
2022-11-05T07:58:04.980Z,7.78
2022-11-05T08:00:33.015Z,5.82
2022-11-05T08:03:10.536Z,6.20
2022-11-05T08:05:41.187Z,7.13
2022-11-05T08:08:10.020Z,7.05
2022-11-05T08:10:38.309Z,6.40
2022-11-05T08:13:07.142Z,6.00
2022-11-05T08:15:35.988Z,5.03
2022-11-05T08:18:11.646Z,5.40
2022-11-05T08:20:40.435Z,10.05
2022-11-05T08:23:08.500Z,6.97
2022-11-05T08:25:36.240Z,9.35
2022-11-05T08:28:07.597Z,6.38
2022-11-05T08:30:35.764Z,7.28
2022-11-05T08:33:08.357Z,5.40
2022-11-05T08:35:37.472Z,3.38
2022-11-05T08:38:07.838Z,3.75
2022-11-05T08:40:36.959Z,3.13
2022-11-05T08:43:07.303Z,8.15
2022-11-05T08:45:38.307Z,5.80
2022-11-05T08:48:15.074Z,6.15
2022-11-05T08:50:43.722Z,22.13
2022-11-05T08:53:12.307Z,10.07
2022-11-05T08:55:40.184Z,11.38
2022-11-05T08:58:15.448Z,10.95
2022-11-05T09:00:45.885Z,10.48
2022-11-05T09:03:14.493Z,8.23
2022-11-05T09:05:43.121Z,8.55
2022-11-05T09:08:17.821Z,9.75
2022-11-05T09:10:47.175Z,12.15
2022-11-05T09:13:18.871Z,8.80
2022-11-05T09:15:49.307Z,11.45
2022-11-05T09:18:18.825Z,10.95
2022-11-05T09:20:47.351Z,6.72
2022-11-05T09:23:16.305Z,7.57
2022-11-05T09:25:44.408Z,8.40
2022-11-05T09:28:21.573Z,10.32
2022-11-05T09:30:52.907Z,12.57
2022-11-05T09:33:23.347Z,9.60
2022-11-05T09:35:51.920Z,11.75
2022-11-05T09:38:19.718Z,10.15
2022-11-05T09:41:08.804Z,8.52
2022-11-05T09:43:54.924Z,8.82
2022-11-05T09:46:27.506Z,7.93
2022-11-05T09:49:06.231Z,9.38
2022-11-05T09:51:36.158Z,9.30
2022-11-05T09:54:05.624Z,8.38
2022-11-05T09:56:37.408Z,9.63
2022-11-05T09:59:29.896Z,12.60
2022-11-05T10:02:23.404Z,13.73
2022-11-05T10:04:56.825Z,11.30
2022-11-05T10:07:28.369Z,7.82
2022-11-05T10:10:04.400Z,8.98
2022-11-05T10:12:49.917Z,9.07
2022-11-05T10:15:35.925Z,7.78
2022-11-05T10:18:47.973Z,8.52
2022-11-05T10:21:32.340Z,9.93
2022-11-05T10:24:20.727Z,7.82
2022-11-05T10:26:54.381Z,9.52
2022-11-05T10:29:30.318Z,8.73
2022-11-05T10:32:01.456Z,12.00
2022-11-05T10:34:34.623Z,10.52
2022-11-05T10:37:03.878Z,11.23
2022-11-05T10:39:45.886Z,12.73
2022-11-05T10:42:47.686Z,13.05
2022-11-05T10:46:06.069Z,12.80
2022-11-05T10:49:24.934Z,12.63
2022-11-05T10:52:00.246Z,14.68
2022-11-05T10:54:35.479Z,10.80
2022-11-05T10:57:35.044Z,9.95
2022-11-05T11:00:25.069Z,13.25
2022-11-05T11:02:59.452Z,12.77
2022-11-05T11:05:38.047Z,10.95
2022-11-05T11:08:24.257Z,10.45
2022-11-05T11:10:59.822Z,10.60
2022-11-05T11:14:10.487Z,10.30
2022-11-05T11:16:45.405Z,14.05
2022-11-05T11:19:27.785Z,10.20
2022-11-05T11:22:16.970Z,8.98
2022-11-05T11:24:51.324Z,10.50
2022-11-05T11:27:24.074Z,14.85
2022-11-05T11:30:03.056Z,9.15
2022-11-05T11:32:49.637Z,11.45
2022-11-05T11:35:26.100Z,10.05
2022-11-05T11:37:56.493Z,11.60
2022-11-05T11:40:38.137Z,10.40
2022-11-05T11:43:30.768Z,13.65
2022-11-05T11:46:05.391Z,13.35
2022-11-05T11:48:36.488Z,15.02
2022-11-05T11:51:40.860Z,13.68
2022-11-05T11:54:29.219Z,13.88
2022-11-05T11:57:00.729Z,14.90
2022-11-05T12:00:01.800Z,17.10
2022-11-05T12:03:04.571Z,23.55
2022-11-05T12:06:02.146Z,18.92
2022-11-05T12:09:13.867Z,23.13
2022-11-05T12:11:59.009Z,21.30
2022-11-05T12:14:46.487Z,22.35
2022-11-05T12:18:15.117Z,19.42
2022-11-05T12:21:03.825Z,24.08
2022-11-05T12:24:21.425Z,20.70
2022-11-05T12:27:36.319Z,19.75
2022-11-05T12:30:16.420Z,18.73
2022-11-05T12:33:50.076Z,16.27
2022-11-05T12:36:59.136Z,14.93
2022-11-05T12:43:20.033Z,17.58
2022-11-05T12:46:31.670Z,15.88
2022-11-05T12:49:23.241Z,13.88
2022-11-05T12:52:02.580Z,12.70
2022-11-05T12:55:00.613Z,13.90
2022-11-05T12:57:32.085Z,13.23
2022-11-05T13:00:16.436Z,14.40
2022-11-05T13:03:23.603Z,15.85
2022-11-05T13:06:10.826Z,14.48
2022-11-05T13:09:07.839Z,17.13
2022-11-05T13:12:02.531Z,15.23
2022-11-05T13:14:46.352Z,17.95
2022-11-05T13:17:41.620Z,17.83
2022-11-05T13:20:24.747Z,18.50
2022-11-05T13:23:14.238Z,17.35
2022-11-05T13:25:52.775Z,17.88
2022-11-05T13:28:48.285Z,19.48
2022-11-05T13:31:21.835Z,18.75
2022-11-05T13:33:52.476Z,19.70
2022-11-05T13:36:46.716Z,19.23
2022-11-05T13:39:24.740Z,22.00
2022-11-05T13:42:26.555Z,18.98
2022-11-05T13:45:43.937Z,18.20
2022-11-05T13:48:14.201Z,18.83
2022-11-05T13:50:50.341Z,19.10
2022-11-05T13:53:45.400Z,21.15
2022-11-05T13:56:50.118Z,22.42
2022-11-05T13:59:51.242Z,25.08
2022-11-05T14:02:50.552Z,21.27
2022-11-05T14:05:39.867Z,24.77
2022-11-05T14:08:29.154Z,24.90
2022-11-05T14:11:07.786Z,22.95
2022-11-05T14:13:44.271Z,22.15
2022-11-05T14:16:27.072Z,21.90
2022-11-05T14:19:18.349Z,27.92
2022-11-05T14:21:51.084Z,26.15
2022-11-05T14:24:40.227Z,65.93
2022-11-05T14:27:08.530Z,23.85
2022-11-05T14:29:50.121Z,21.60
2022-11-05T14:32:17.270Z,18.42
2022-11-05T14:35:17.820Z,19.38
2022-11-05T14:37:57.305Z,24.10
2022-11-05T14:40:44.590Z,18.35
2022-11-05T14:43:14.950Z,19.25
2022-11-05T14:46:06.258Z,21.02
2022-11-05T14:48:46.511Z,17.67
2022-11-05T14:51:38.472Z,26.85
2022-11-05T14:54:19.478Z,21.45
2022-11-05T14:56:59.982Z,25.27
2022-11-05T14:59:32.107Z,17.63
2022-11-05T15:02:18.184Z,14.90
2022-11-05T15:04:45.782Z,20.27
2022-11-05T15:07:31.113Z,20.02
2022-11-05T15:10:13.331Z,18.58
2022-11-05T15:12:56.804Z,18.08
2022-11-05T15:15:32.116Z,20.85
2022-11-05T15:18:35.863Z,22.83
2022-11-05T15:21:04.896Z,21.48
2022-11-05T15:23:42.349Z,29.63
2022-11-05T15:26:41.637Z,25.38
2022-11-05T15:29:26.193Z,15.45
2022-11-05T15:31:53.848Z,15.30
2022-11-05T15:34:33.565Z,19.40
2022-11-05T15:37:19.836Z,234.05
2022-11-05T15:39:50.008Z,184.82
2022-11-05T15:42:26.692Z,189.38
2022-11-05T15:44:56.958Z,138.93
2022-11-05T15:47:30.462Z,54.83
2022-11-05T15:50:03.976Z,29.65
2022-11-05T15:52:50.749Z,49.00
2022-11-05T15:55:25.137Z,44.75
2022-11-05T15:58:10.837Z,45.17
2022-11-05T16:00:38.220Z,53.83
2022-11-05T16:03:16.014Z,21.58
2022-11-05T16:05:47.302Z,16.25
2022-11-05T16:08:27.817Z,24.33
2022-11-05T16:10:59.169Z,17.95
2022-11-05T16:13:41.588Z,23.27
2022-11-05T16:16:14.772Z,27.60
2022-11-05T16:18:43.932Z,22.05
2022-11-05T16:21:22.717Z,17.27
2022-11-05T16:23:49.806Z,24.25
2022-11-05T16:29:33.098Z,20.58
2022-11-05T16:32:04.079Z,92.30
2022-11-05T16:34:47.190Z,69.50
2022-11-05T16:37:17.339Z,24.23
2022-11-05T16:39:45.180Z,27.85
2022-11-05T16:42:24.572Z,16.83
2022-11-05T16:44:54.058Z,18.23
2022-11-05T16:47:23.137Z,20.45
2022-11-05T16:49:50.762Z,20.83
2022-11-05T16:52:18.767Z,19.60
2022-11-05T16:54:46.009Z,19.88
2022-11-05T16:57:29.192Z,21.95
2022-11-05T16:59:58.366Z,18.35
2022-11-05T17:02:26.693Z,18.00
2022-11-05T17:04:54.602Z,21.20
2022-11-05T17:07:22.250Z,18.65
2022-11-05T17:09:49.492Z,19.40
2022-11-05T17:12:16.845Z,18.73
2022-11-05T17:14:44.157Z,23.15
2022-11-05T17:17:11.713Z,33.28
2022-11-05T17:19:42.447Z,20.52
2022-11-05T17:22:09.924Z,23.65
2022-11-05T17:24:37.557Z,29.75
2022-11-05T17:27:05.101Z,22.85
2022-11-05T17:29:32.280Z,21.77
2022-11-05T17:31:59.600Z,25.17
2022-11-05T17:34:26.940Z,27.35
2022-11-05T17:36:54.197Z,26.98
2022-11-05T17:39:30.333Z,32.47
2022-11-05T17:41:58.968Z,48.15
2022-11-05T17:44:26.784Z,29.08
2022-11-05T17:46:54.218Z,33.70
2022-11-05T17:49:21.564Z,27.40
2022-11-05T17:51:48.836Z,32.40
2022-11-05T17:54:16.809Z,26.17
2022-11-05T17:56:44.869Z,26.95
2022-11-05T17:59:12.445Z,22.90
2022-11-05T18:01:44.913Z,22.90
2022-11-05T18:04:12.726Z,24.90
2022-11-05T18:06:40.889Z,24.17
2022-11-05T18:09:11.022Z,38.00
2022-11-05T18:11:39.394Z,23.48
2022-11-05T18:14:07.458Z,31.83
2022-11-05T18:16:35.690Z,30.08
2022-11-05T18:19:03.909Z,27.85
2022-11-05T18:21:31.598Z,23.65
2022-11-05T18:23:58.989Z,22.58
2022-11-05T18:26:26.594Z,23.50
2022-11-05T18:28:53.901Z,24.50
2022-11-05T18:31:22.277Z,29.48
2022-11-05T18:33:50.903Z,23.85
2022-11-05T18:36:25.104Z,24.27
2022-11-05T18:38:53.396Z,20.23
2022-11-05T18:41:21.821Z,25.40
2022-11-05T18:43:49.295Z,21.58
2022-11-05T18:46:43.119Z,20.80
2022-11-05T18:49:04.780Z,27.50
2022-11-05T18:51:32.218Z,18.85
2022-11-05T18:54:00.711Z,24.65
2022-11-05T18:56:28.012Z,18.13
2022-11-05T18:59:22.101Z,22.92
2022-11-05T19:01:43.866Z,27.40
2022-11-05T19:04:11.665Z,26.77
2022-11-05T19:06:39.470Z,26.17
2022-11-05T19:09:09.953Z,27.08
2022-11-05T19:11:37.822Z,38.75
2022-11-05T19:14:05.159Z,27.63
2022-11-05T19:16:33.609Z,30.40
2022-11-05T19:19:04.985Z,23.38
2022-11-05T19:21:33.694Z,23.92
2022-11-05T19:24:03.295Z,25.90
2022-11-05T19:26:31.201Z,27.42
2022-11-05T19:29:01.854Z,23.33
2022-11-05T19:34:01.457Z,27.13
2022-11-05T19:36:29.286Z,43.38
2022-11-05T19:39:00.713Z,31.02
2022-11-05T19:41:28.504Z,35.53
2022-11-05T19:43:58.018Z,37.70
2022-11-05T19:46:26.079Z,35.28
2022-11-05T19:48:54.128Z,32.95
2022-11-05T19:51:24.462Z,41.75
2022-11-05T19:53:52.941Z,43.97
2022-11-05T19:56:24.536Z,35.60
2022-11-05T19:58:53.352Z,42.10
2022-11-05T20:01:23.453Z,48.17
2022-11-05T20:03:51.786Z,61.22
2022-11-05T20:06:33.077Z,42.85
2022-11-05T20:09:22.192Z,42.72
2022-11-05T20:11:54.527Z,43.33
2022-11-05T20:14:23.669Z,38.83
2022-11-05T20:16:51.260Z,37.15
2022-11-05T20:19:22.449Z,33.63
2022-11-05T20:21:50.087Z,30.38
2022-11-05T20:24:24.796Z,34.15
2022-11-05T20:26:56.802Z,31.25
2022-11-05T20:29:30.521Z,32.72
2022-11-05T20:32:03.956Z,31.45
2022-11-05T20:34:33.237Z,33.88
2022-11-05T20:37:01.841Z,32.15
2022-11-05T20:39:29.316Z,29.45
2022-11-05T20:41:57.037Z,33.95
2022-11-05T20:44:24.719Z,29.23
2022-11-05T20:46:52.036Z,32.17
2022-11-05T20:49:24.935Z,29.45
2022-11-05T20:51:53.200Z,26.63
2022-11-05T20:54:20.532Z,28.85
2022-11-05T20:56:48.009Z,26.90
2022-11-05T20:59:15.428Z,28.00
2022-11-05T21:01:42.787Z,23.70
2022-11-05T21:04:10.468Z,28.95
2022-11-05T21:06:37.886Z,32.92
2022-11-05T21:09:06.059Z,26.55
2022-11-05T21:11:53.351Z,36.58
2022-11-05T21:14:20.741Z,31.30
2022-11-05T21:16:48.144Z,29.08
2022-11-05T21:19:15.326Z,25.88
2022-11-05T21:21:42.699Z,29.65
2022-11-05T21:24:10.073Z,27.65
2022-11-05T21:26:37.451Z,29.88
2022-11-05T21:29:04.702Z,30.50
2022-11-05T21:31:31.940Z,25.52
2022-11-05T21:33:59.156Z,28.02
2022-11-05T21:36:26.475Z,24.17
2022-11-05T21:38:53.796Z,28.15
2022-11-05T21:41:21.138Z,26.85
2022-11-05T21:43:48.430Z,28.15
2022-11-05T21:46:15.824Z,40.28
2022-11-05T21:48:43.299Z,26.38
2022-11-05T21:51:30.134Z,28.35
2022-11-05T21:54:16.078Z,34.45
2022-11-05T21:57:07.090Z,24.70
2022-11-05T21:59:51.850Z,25.67
2022-11-05T22:02:22.474Z,27.90
2022-11-05T22:04:53.350Z,31.98
2022-11-05T22:07:26.362Z,27.90
2022-11-05T22:09:54.460Z,25.95
2022-11-05T22:12:22.782Z,21.35
2022-11-05T22:14:50.379Z,37.58
2022-11-05T22:17:18.962Z,29.52
2022-11-05T22:19:46.671Z,23.20
2022-11-05T22:22:14.805Z,28.63
2022-11-05T22:24:43.084Z,32.60
2022-11-05T22:27:16.222Z,31.17
2022-11-05T22:29:44.055Z,27.80
2022-11-05T22:32:11.938Z,30.25
2022-11-05T22:34:39.309Z,29.63
2022-11-05T22:37:07.220Z,23.27
2022-11-05T22:39:34.926Z,34.13
2022-11-05T22:42:08.016Z,32.05
2022-11-05T22:44:36.402Z,29.40
2022-11-05T22:47:03.886Z,30.88
2022-11-05T22:49:31.541Z,30.92
2022-11-05T22:51:58.821Z,31.27
2022-11-05T22:54:26.071Z,31.63
2022-11-05T22:56:53.865Z,29.13
2022-11-05T22:59:21.347Z,27.50
2022-11-05T23:01:49.365Z,33.75
2022-11-05T23:04:17.280Z,28.17
2022-11-05T23:07:03.133Z,30.10
2022-11-05T23:09:56.821Z,25.88
2022-11-05T23:12:28.592Z,24.40
2022-11-05T23:14:57.930Z,28.65
2022-11-05T23:17:45.253Z,38.75
2022-11-05T23:20:37.459Z,28.77
2022-11-05T23:23:27.932Z,27.08
2022-11-05T23:26:00.039Z,31.10
2022-11-05T23:28:27.332Z,26.17
2022-11-05T23:31:13.232Z,26.60
2022-11-05T23:33:40.432Z,34.60
2022-11-05T23:36:30.539Z,29.50
2022-11-05T23:38:57.800Z,31.95
2022-11-05T23:41:43.859Z,33.15
2022-11-05T23:44:29.806Z,36.00
2022-11-05T23:47:15.625Z,32.10
2022-11-05T23:49:42.801Z,30.77
2022-11-05T23:52:10.006Z,25.92
2022-11-05T23:54:37.216Z,33.95
2022-11-05T23:57:04.795Z,32.58
2022-11-05T23:59:32.020Z,33.20
